Alpine, Pennsylvania
Current Conditions -  °F | °C
As of 4:56 AM on Friday 21 Nov 2014 (Local Time) from KCXY Reporting Station
Clear Clear  
Wind Chill: 18°   Ceiling: Unl
Heat Index: 26°   Visibility: 10mi
Dew Point:   Wind: 7mph
Humidity: 47%   Direction: 300°WNW
Pressure: 30.22"   Gusts: NA
Location:  40.1328°N, 76.8833°W
Report Text: KCXY 210956Z AUTO 30006KT 10SM CLR M03/M13 A3022 RMK AO2 SLP238 T10331133
Loading
Personal Weather Stations






























Interactive Weather Map New forecast layout! Learn more

10-Day Weather Forecast

Advertisements
Track Severe Weather on mobile